createdAt,value
2018-04-27T00:00:01.707Z,76.71
2018-04-27T00:01:11.590Z,76.81
2018-04-27T00:02:21.520Z,76.81
2018-04-27T00:03:31.390Z,76.71
2018-04-27T00:04:41.542Z,76.52
2018-04-27T00:05:51.767Z,76.48
2018-04-27T00:07:01.274Z,76.76
2018-04-27T00:08:11.400Z,76.96
2018-04-27T00:09:21.659Z,77.15
2018-04-27T00:10:31.788Z,77.15
2018-04-27T00:11:41.922Z,77.24
2018-04-27T00:12:52.095Z,77.24
2018-04-27T00:14:02.352Z,77.15
2018-04-27T00:15:12.568Z,77.15
2018-04-27T00:16:22.341Z,77.15
2018-04-27T00:17:32.709Z,77.15
2018-04-27T00:18:42.828Z,77.15
2018-04-27T00:19:52.720Z,77.15
2018-04-27T00:21:02.866Z,77.34
2018-04-27T00:22:13.011Z,77.91
2018-04-27T00:23:23.168Z,77.81
2018-04-27T00:24:32.918Z,77.81
2018-04-27T00:25:43.128Z,78.1
2018-04-27T00:26:53.269Z,78.29
2018-04-27T00:28:03.536Z,77.91
2018-04-27T00:29:13.683Z,77.81
2018-04-27T00:30:23.793Z,78
2018-04-27T00:31:33.927Z,77.91
2018-04-27T00:32:44.054Z,77.62
2018-04-27T00:33:54.233Z,77.91
2018-04-27T00:35:04.342Z,77.91
2018-04-27T00:36:14.493Z,77.81
2018-04-27T00:37:24.650Z,77.91
2018-04-27T00:38:34.780Z,77.95
2018-04-27T00:39:44.905Z,77.91
2018-04-27T00:40:55.091Z,77.28
2018-04-27T00:42:04.972Z,77.28
2018-04-27T00:43:15.113Z,77.28
2018-04-27T00:44:25.239Z,77.15
2018-04-27T00:45:35.373Z,77.19
2018-04-27T00:46:45.570Z,77.28
2018-04-27T00:47:55.430Z,77.09
2018-04-27T00:49:05.700Z,76.67
2018-04-27T00:50:15.580Z,76.76
2018-04-27T00:51:25.601Z,76.96
2018-04-27T00:52:35.732Z,76.86
2018-04-27T00:53:45.931Z,77.24
2018-04-27T00:54:56.076Z,77.15
2018-04-27T00:56:06.192Z,77.15
2018-04-27T00:57:16.324Z,77.24
2018-04-27T00:58:26.500Z,77.34
2018-04-27T00:59:36.732Z,76.96
2018-04-27T01:00:46.496Z,77.15
2018-04-27T01:01:56.648Z,77.15
2018-04-27T01:03:06.769Z,77.34
2018-04-27T01:04:16.911Z,77.05
2018-04-27T01:05:27.097Z,77.05
2018-04-27T01:06:37.242Z,76.96
2018-04-27T01:07:47.376Z,77.05
2018-04-27T01:08:57.497Z,78
2018-04-27T01:10:07.332Z,77.72
2018-04-27T01:11:17.471Z,77.81
2018-04-27T01:12:27.621Z,77.62
2018-04-27T01:13:37.803Z,77.91
2018-04-27T01:14:48.009Z,77.72
2018-04-27T01:15:58.126Z,77.91
2018-04-27T01:17:08.274Z,77.91
2018-04-27T01:18:18.395Z,77.91
2018-04-27T01:19:28.514Z,77.91
2018-04-27T01:20:38.735Z,77.72
2018-04-27T01:21:48.897Z,77.91
2018-04-27T01:22:59.030Z,77.81
2018-04-27T01:24:08.809Z,77.43
2018-04-27T01:25:18.991Z,77.81
2018-04-27T01:26:29.226Z,77.91
2018-04-27T01:27:39.430Z,78
2018-04-27T01:28:49.701Z,77.81
2018-04-27T01:29:59.855Z,77.72
2018-04-27T01:31:09.649Z,78.1
2018-04-27T01:32:19.822Z,77.91
2018-04-27T01:33:29.930Z,78.19
2018-04-27T01:34:40.060Z,77.91
2018-04-27T01:35:50.191Z,77.91
2018-04-27T01:37:00.309Z,78.19
2018-04-27T01:38:10.424Z,77.91
2018-04-27T01:39:20.643Z,77.91
2018-04-27T01:40:30.804Z,78
2018-04-27T01:41:40.909Z,77.81
2018-04-27T01:42:50.768Z,77.62
2018-04-27T01:44:00.704Z,77.81
2018-04-27T01:45:10.939Z,78
2018-04-27T01:46:21.084Z,77.91
2018-04-27T01:47:30.964Z,78
2018-04-27T01:48:41.083Z,78.19
2018-04-27T01:49:50.958Z,78.29
2018-04-27T01:51:01.087Z,77.72
2018-04-27T01:52:10.892Z,78.48
2018-04-27T01:53:21.017Z,78.57
2018-04-27T01:54:31.140Z,78.57
2018-04-27T01:55:41.336Z,78.67
2018-04-27T01:56:51.618Z,78.38
2018-04-27T01:58:01.837Z,78
2018-04-27T01:59:11.957Z,78.57
2018-04-27T02:00:22.086Z,79.05
2018-04-27T02:01:32.219Z,78.67
2018-04-27T02:02:42.377Z,78.77
2018-04-27T02:03:52.497Z,79.05
2018-04-27T02:05:02.685Z,78.96
2018-04-27T02:06:12.987Z,78.96
2018-04-27T02:07:23.170Z,78.19
2018-04-27T02:08:33.027Z,78.67
2018-04-27T02:09:43.157Z,78.38
2018-04-27T02:10:53.302Z,78.48
2018-04-27T02:12:04.429Z,78.67
2018-04-27T02:13:14.296Z,78.38
2018-04-27T02:14:24.416Z,78.19
2018-04-27T02:15:34.695Z,78.29
2018-04-27T02:16:44.942Z,77.91
2018-04-27T02:17:54.813Z,78
2018-04-27T02:19:04.578Z,77.53
2018-04-27T02:20:14.709Z,77.72
2018-04-27T02:21:24.868Z,77.53
2018-04-27T02:22:35.108Z,78
2018-04-27T02:23:45.293Z,78.1
2018-04-27T02:24:55.151Z,78
2018-04-27T02:26:05.011Z,78.1
2018-04-27T02:27:15.175Z,78.1
2018-04-27T02:28:25.313Z,77.91
2018-04-27T02:29:35.094Z,77.91
2018-04-27T02:30:45.230Z,77.43
2018-04-27T02:31:55.351Z,77.62
2018-04-27T02:33:05.547Z,77.91
2018-04-27T02:34:15.692Z,77.91
2018-04-27T02:35:25.869Z,77.91
2018-04-27T02:36:35.988Z,78.1
2018-04-27T02:37:45.790Z,78.29
2018-04-27T02:38:56.175Z,78.38
2018-04-27T02:40:05.952Z,78.19
2018-04-27T02:41:16.106Z,78.19
2018-04-27T02:42:26.246Z,78.19
2018-04-27T02:43:36.377Z,78.29
2018-04-27T02:44:46.179Z,78.29
2018-04-27T02:45:56.334Z,78.1
2018-04-27T02:47:06.376Z,78.29
2018-04-27T02:48:16.220Z,78.19
2018-04-27T02:49:26.397Z,78.38
2018-04-27T02:50:36.583Z,78.96
2018-04-27T02:51:46.715Z,78.77
2018-04-27T02:52:56.865Z,79.05
2018-04-27T02:54:07.017Z,78.96
2018-04-27T02:55:17.142Z,78.67
2018-04-27T02:56:27.084Z,78.77
2018-04-27T02:57:37.313Z,78.96
2018-04-27T02:58:47.483Z,79.14
2018-04-27T02:59:57.748Z,78.96
2018-04-27T03:01:07.961Z,78.38
2018-04-27T03:02:17.827Z,78.57
2018-04-27T03:03:27.698Z,78.48
2018-04-27T03:04:37.829Z,78.67
2018-04-27T03:05:47.964Z,78.63
2018-04-27T03:06:57.827Z,78.67
2018-04-27T03:08:07.974Z,78.77
2018-04-27T03:09:18.087Z,78.48
2018-04-27T03:10:28.207Z,78.38
2018-04-27T03:11:38.372Z,78
2018-04-27T03:12:48.692Z,78.38
2018-04-27T03:13:58.882Z,77.91
2018-04-27T03:15:09.100Z,77.87
2018-04-27T03:16:19.407Z,78.16
2018-04-27T03:17:29.265Z,78.25
2018-04-27T03:18:39.388Z,78.34
2018-04-27T03:19:49.259Z,78.53
2018-04-27T03:20:59.399Z,78.16
2018-04-27T03:22:09.536Z,78.38
2018-04-27T03:23:19.686Z,78.29
2018-04-27T03:24:29.809Z,78.57
2018-04-27T03:25:39.947Z,78.96
2018-04-27T03:26:50.096Z,78.48
2018-04-27T03:28:00.278Z,78.1
2018-04-27T03:29:10.415Z,78.77
2018-04-27T03:30:20.414Z,78.86
2018-04-27T03:31:30.542Z,78.48
2018-04-27T03:32:40.672Z,78.67
2018-04-27T03:33:50.805Z,78.48
2018-04-27T03:35:00.670Z,78.38
2018-04-27T03:36:10.829Z,78.1
2018-04-27T03:37:21.046Z,78.1
2018-04-27T03:38:31.254Z,78.29
2018-04-27T03:39:41.450Z,78.38
2018-04-27T03:40:51.625Z,78.1
2018-04-27T03:42:01.895Z,77.91
2018-04-27T03:43:12.160Z,78.19
2018-04-27T03:44:22.360Z,78.1
2018-04-27T03:45:32.513Z,77.91
2018-04-27T03:46:42.765Z,78.29
2018-04-27T03:47:52.983Z,78.48
2018-04-27T03:49:03.195Z,78.77
2018-04-27T03:50:12.846Z,78.67
2018-04-27T03:51:22.785Z,78.77
2018-04-27T03:52:32.953Z,78.67
2018-04-27T03:53:43.132Z,78.57
2018-04-27T03:54:53.314Z,78.19
2018-04-27T03:56:03.491Z,78.38
2018-04-27T03:57:13.729Z,78.29
2018-04-27T03:58:23.672Z,78.29
2018-04-27T03:59:33.854Z,77.91
2018-04-27T04:00:44.008Z,77.91
2018-04-27T04:01:53.904Z,78.1
2018-04-27T04:03:04.019Z,78.1
2018-04-27T04:04:13.910Z,77.91
2018-04-27T04:05:24.059Z,78
2018-04-27T04:06:34.179Z,77.72
2018-04-27T04:07:44.324Z,77.72
2018-04-27T04:08:54.465Z,78.29
2018-04-27T04:10:04.626Z,77.91
2018-04-27T04:11:14.759Z,78
2018-04-27T04:12:24.922Z,78.29
2018-04-27T04:13:35.075Z,78.29
2018-04-27T04:14:45.436Z,78.1
2018-04-27T04:15:55.397Z,78
2018-04-27T04:17:05.578Z,78.29
2018-04-27T04:18:15.463Z,78.67
2018-04-27T04:19:25.615Z,78.77
2018-04-27T04:20:35.486Z,78.67
2018-04-27T04:21:45.643Z,78.38
2018-04-27T04:22:55.555Z,77.91
2018-04-27T04:24:05.676Z,77.91
2018-04-27T04:25:15.825Z,77.91
2018-04-27T04:26:25.971Z,77.91
2018-04-27T04:27:36.178Z,77.91
2018-04-27T04:28:47.288Z,78.1
2018-04-27T04:29:57.434Z,78.1
2018-04-27T04:31:07.346Z,78.38
2018-04-27T04:32:17.561Z,78.1
2018-04-27T04:33:27.956Z,78
2018-04-27T04:34:37.835Z,78
2018-04-27T04:35:47.732Z,78.1
2018-04-27T04:36:57.962Z,78.29
2018-04-27T04:38:08.176Z,78.19
2018-04-27T04:39:18.520Z,78.38
2018-04-27T04:40:28.672Z,78.04
2018-04-27T04:41:38.809Z,78.14
2018-04-27T04:42:48.942Z,77.95
2018-04-27T04:43:59.154Z,78.14
2018-04-27T04:45:09.686Z,78.14
2018-04-27T04:46:19.593Z,77.85
2018-04-27T04:47:29.739Z,77.76
2018-04-27T04:48:39.963Z,77.47
2018-04-27T04:49:50.155Z,77.76
2018-04-27T04:51:00.356Z,77.95
2018-04-27T04:52:10.017Z,77.76
2018-04-27T04:53:21.169Z,77.56
2018-04-27T04:54:31.292Z,77.56
2018-04-27T04:55:41.486Z,77.19
2018-04-27T04:56:51.788Z,77
2018-04-27T04:58:01.674Z,77
2018-04-27T04:59:11.426Z,77.19
2018-04-27T05:00:21.549Z,77
2018-04-27T05:01:31.657Z,77.28
2018-04-27T05:02:41.968Z,77
2018-04-27T05:03:52.634Z,76.71
2018-04-27T05:05:02.918Z,77.03
2018-04-27T05:06:12.787Z,77.03
2018-04-27T05:07:22.921Z,76.84
2018-04-27T05:08:32.692Z,76.94
2018-04-27T05:09:42.815Z,76.84
2018-04-27T05:10:53.136Z,76.75
2018-04-27T05:12:02.939Z,76.37
2018-04-27T05:13:13.105Z,76.46
2018-04-27T05:14:23.246Z,76.27
2018-04-27T05:15:33.371Z,75.99
2018-04-27T05:16:42.877Z,76.18
2018-04-27T05:17:53.010Z,75.67
2018-04-27T05:19:03.145Z,75.85
2018-04-27T05:20:13.035Z,75.67
2018-04-27T05:21:23.184Z,75.76
2018-04-27T05:22:33.296Z,75.85
2018-04-27T05:23:43.416Z,75.85
2018-04-27T05:24:53.595Z,76.14
2018-04-27T05:26:03.763Z,76.42
2018-04-27T05:27:13.982Z,76.52
2018-04-27T05:28:24.399Z,76.39
2018-04-27T05:29:34.542Z,76.48
2018-04-27T05:30:44.841Z,76.61
2018-04-27T05:31:55.050Z,76.76
2018-04-27T05:33:05.181Z,76.76
2018-04-27T05:34:15.435Z,77
2018-04-27T05:35:25.593Z,77.28
2018-04-27T05:36:35.736Z,77.09
2018-04-27T05:37:45.910Z,76.52
2018-04-27T05:38:56.066Z,76.81
2018-04-27T05:40:06.191Z,76.81
2018-04-27T05:41:16.060Z,76.71
2018-04-27T05:42:26.189Z,76.14
2018-04-27T05:43:36.339Z,76.14
2018-04-27T05:44:47.570Z,76.9
2018-04-27T05:45:57.794Z,76.71
2018-04-27T05:47:07.933Z,76.81
2018-04-27T05:48:18.094Z,76.9
2018-04-27T05:49:28.053Z,76.71
2018-04-27T05:50:38.002Z,76.42
2018-04-27T05:51:47.878Z,76.14
2018-04-27T05:52:58.009Z,76.42
2018-04-27T05:54:08.202Z,76.52
2018-04-27T05:55:18.448Z,76.52
2018-04-27T05:56:28.566Z,76.52
2018-04-27T05:57:38.687Z,76.33
2018-04-27T05:58:48.577Z,76.81
2018-04-27T05:59:58.798Z,76.52
2018-04-27T06:01:08.942Z,76.61
2018-04-27T06:02:18.718Z,76.52
2018-04-27T06:03:28.833Z,76.33
2018-04-27T06:04:39.053Z,76.33
2018-04-27T06:05:49.250Z,76.52
2018-04-27T06:06:59.381Z,76.42
2018-04-27T06:08:09.523Z,76.42
2018-04-27T06:09:19.667Z,76.42
2018-04-27T06:10:29.833Z,76.42
2018-04-27T06:11:39.996Z,76.37
2018-04-27T06:12:50.145Z,76.37
2018-04-27T06:14:00.316Z,76.46
2018-04-27T06:15:10.451Z,76.75
2018-04-27T06:16:20.610Z,75.99
2018-04-27T06:17:30.786Z,75.89
2018-04-27T06:18:40.938Z,76.37
2018-04-27T06:19:50.892Z,75.99
2018-04-27T06:21:01.098Z,75.79
2018-04-27T06:22:11.243Z,75.7
2018-04-27T06:23:21.144Z,75.6
2018-04-27T06:24:31.266Z,75.79
2018-04-27T06:25:41.586Z,75.55
2018-04-27T06:26:52.089Z,76.03
2018-04-27T06:28:02.243Z,75.45
2018-04-27T06:29:12.509Z,75.36
2018-04-27T06:30:22.414Z,75.16
2018-04-27T06:31:32.530Z,75.36
2018-04-27T06:32:42.679Z,75.16
2018-04-27T06:33:52.927Z,74.88
2018-04-27T06:35:03.098Z,74.4
2018-04-27T06:36:13.334Z,74.4
2018-04-27T06:37:23.544Z,74.4
2018-04-27T06:38:33.704Z,74.31
2018-04-27T06:39:43.908Z,74.31
2018-04-27T06:40:53.829Z,74.21
2018-04-27T06:42:03.995Z,74.21
2018-04-27T06:43:14.147Z,73.93
2018-04-27T06:44:24.301Z,74.21
2018-04-27T06:45:34.523Z,73.93
2018-04-27T06:46:45.431Z,73.74
2018-04-27T06:47:55.580Z,73.83
2018-04-27T06:49:05.758Z,73.74
2018-04-27T06:50:15.900Z,74.21
2018-04-27T06:51:25.951Z,74.31
2018-04-27T06:52:36.206Z,74.02
2018-04-27T06:53:46.331Z,74.06
2018-04-27T06:54:56.524Z,73.96
2018-04-27T06:56:06.653Z,73.96
2018-04-27T06:57:16.847Z,74.16
2018-04-27T06:58:27.186Z,73.49
2018-04-27T06:59:37.340Z,73.21
2018-04-27T07:00:47.484Z,72.92
2018-04-27T07:01:57.722Z,72.63
2018-04-27T07:03:07.986Z,72.92
2018-04-27T07:04:18.244Z,72.25
2018-04-27T07:05:28.463Z,72.19
2018-04-27T07:06:38.601Z,72.28
2018-04-27T07:07:48.471Z,71.91
2018-04-27T07:08:59.583Z,71.62
2018-04-27T07:10:09.483Z,71.2
2018-04-27T07:11:19.609Z,71.04
2018-04-27T07:12:30.871Z,71.33
2018-04-27T07:13:43.361Z,70.67
2018-04-27T07:16:09.493Z,70.67
2018-04-27T07:17:19.614Z,70.19
2018-04-27T07:18:29.730Z,70.19
2018-04-27T07:20:53.049Z,69.52
2018-04-27T07:22:03.180Z,69.37
2018-04-27T07:23:13.050Z,69.56
2018-04-27T07:24:23.223Z,68.98
2018-04-27T07:25:33.420Z,69.37
2018-04-27T07:26:43.643Z,69.08
2018-04-27T07:27:53.851Z,68.7
2018-04-27T07:29:03.988Z,68.88
2018-04-27T07:30:13.904Z,68.98
2018-04-27T07:31:25.002Z,68.79
2018-04-27T07:32:35.161Z,69.02
2018-04-27T07:33:45.298Z,68.54
2018-04-27T07:34:55.457Z,68.06
2018-04-27T07:36:05.598Z,67.68
2018-04-27T07:37:15.737Z,67.97
2018-04-27T07:38:25.877Z,68.06
2018-04-27T07:39:36.152Z,67.58
2018-04-27T07:40:46.761Z,67.68
2018-04-27T07:41:56.958Z,67.3
2018-04-27T07:43:06.828Z,67.11
2018-04-27T07:44:16.968Z,67.14
2018-04-27T07:45:27.266Z,67.24
2018-04-27T07:46:37.406Z,67.05
2018-04-27T07:47:47.594Z,67.33
2018-04-27T07:48:57.757Z,67.14
2018-04-27T07:50:07.961Z,66.47
2018-04-27T07:51:19.175Z,66.76
2018-04-27T07:52:29.452Z,66.56
2018-04-27T07:53:39.647Z,66.13
2018-04-27T07:56:05.153Z,65.64
2018-04-27T07:57:15.057Z,65.84
2018-04-27T07:58:24.943Z,64.88
2018-04-27T07:59:37.606Z,64.72
2018-04-27T08:00:47.808Z,64.91
2018-04-27T08:01:58.067Z,64.62
2018-04-27T08:03:10.680Z,64.72
2018-04-27T08:04:20.865Z,64.91
2018-04-27T08:06:49.702Z,63.32
2018-04-27T08:07:59.600Z,63.13
2018-04-27T08:10:23.794Z,62.68
2018-04-27T08:11:33.968Z,62.4
2018-04-27T08:14:00.132Z,61.47
2018-04-27T08:15:11.529Z,61.37
2018-04-27T08:16:21.696Z,60.32
2018-04-27T08:17:31.883Z,60.16
2018-04-27T08:21:11.633Z,57.21
2018-04-27T08:22:21.767Z,56.7
2018-04-27T08:23:31.930Z,54.93
2018-04-27T08:24:41.836Z,54.67
2018-04-27T08:25:52.030Z,52.58
2018-04-27T08:27:02.167Z,51.67
2018-04-27T08:28:12.314Z,50.25
2018-04-27T08:29:21.950Z,49.24
2018-04-27T08:30:32.092Z,47.7
2018-04-27T08:31:42.305Z,47.34
2018-04-27T08:32:52.494Z,46.88
2018-04-27T08:34:02.742Z,46.23
2018-04-27T08:35:12.907Z,45.09
2018-04-27T08:36:23.059Z,43.64
2018-04-27T08:37:33.315Z,43.08
2018-04-27T08:38:43.424Z,42.43
2018-04-27T08:39:53.586Z,42.24
2018-04-27T08:41:03.725Z,41.77
2018-04-27T08:42:13.912Z,41.29
2018-04-27T08:43:24.071Z,40.32
2018-04-27T08:44:34.341Z,39.64
2018-04-27T08:45:44.520Z,39.45
2018-04-27T08:46:54.800Z,37.63
2018-04-27T08:48:04.722Z,37.34
2018-04-27T08:49:14.865Z,37.32
2018-04-27T08:50:24.894Z,36.84
2018-04-27T08:51:34.680Z,36.74
2018-04-27T08:52:44.845Z,36.65
2018-04-27T08:53:55.026Z,36.36
2018-04-27T08:55:05.431Z,36.07
2018-04-27T08:56:15.319Z,35.78
2018-04-27T08:57:25.461Z,35.78
2018-04-27T08:58:35.734Z,35.58
2018-04-27T08:59:45.880Z,35.31
2018-04-27T09:00:56.043Z,35.02
2018-04-27T09:02:06.215Z,34.75
2018-04-27T09:03:16.258Z,34.36
2018-04-27T09:04:26.498Z,33.99
2018-04-27T09:05:36.699Z,33.51
2018-04-27T09:06:47.063Z,33.14
2018-04-27T09:07:57.308Z,33.02
2018-04-27T09:09:07.517Z,32.17
2018-04-27T09:10:17.651Z,32.44
2018-04-27T09:11:27.856Z,32.15
2018-04-27T09:12:37.998Z,32.06
2018-04-27T09:13:47.798Z,31.57
2018-04-27T09:14:57.931Z,31.76
2018-04-27T09:16:08.091Z,31.47
2018-04-27T09:17:18.359Z,31.28
2018-04-27T09:18:28.523Z,31.37
2018-04-27T09:19:38.670Z,31.26
2018-04-27T09:20:48.823Z,31.47
2018-04-27T09:21:58.977Z,30.89
2018-04-27T09:23:10.137Z,30.51
2018-04-27T09:24:20.472Z,30.1
2018-04-27T09:25:30.659Z,29.8
2018-04-27T09:26:40.867Z,30.08
2018-04-27T09:27:51.086Z,30.57
2018-04-27T09:29:01.006Z,30.2
2018-04-27T09:30:11.190Z,29.22
2018-04-27T09:31:21.069Z,30.18
2018-04-27T09:32:31.224Z,30.47
2018-04-27T09:33:41.359Z,30.47
2018-04-27T09:34:51.515Z,30.66
2018-04-27T09:36:01.667Z,30.66
2018-04-27T09:37:11.848Z,30.38
2018-04-27T09:38:22.035Z,30.47
2018-04-27T09:39:32.306Z,30.47
2018-04-27T09:40:42.620Z,30.39
2018-04-27T09:41:52.808Z,29.13
2018-04-27T09:43:03.028Z,29.61
2018-04-27T09:44:13.199Z,29.8
2018-04-27T09:45:23.027Z,29.8
2018-04-27T09:46:33.213Z,28.92
2018-04-27T09:47:43.162Z,29.41
2018-04-27T09:48:53.305Z,29.78
2018-04-27T09:50:03.459Z,29.41
2018-04-27T09:51:13.644Z,29.41
2018-04-27T09:52:23.848Z,29.13
2018-04-27T09:53:34.040Z,29.23
2018-04-27T09:54:44.195Z,28.96
2018-04-27T09:55:54.383Z,28.66
2018-04-27T09:57:04.669Z,28.96
2018-04-27T09:58:14.879Z,28.76
2018-04-27T09:59:25.147Z,29.63
2018-04-27T10:00:35.346Z,28.87
2018-04-27T10:01:45.528Z,28.09
2018-04-27T10:02:55.731Z,28.47
2018-04-27T10:04:05.298Z,28.85
2018-04-27T10:05:15.495Z,28.62
2018-04-27T10:06:25.732Z,29.19
2018-04-27T10:07:35.906Z,30.04
2018-04-27T10:08:46.045Z,30.43
2018-04-27T10:09:56.192Z,30.9
2018-04-27T10:11:06.070Z,31.18
2018-04-27T10:12:15.708Z,30.82
2018-04-27T10:13:25.864Z,30.52
2018-04-27T10:14:35.737Z,30.54
2018-04-27T10:15:45.936Z,30.83
2018-04-27T10:16:56.163Z,30.25
2018-04-27T10:18:06.613Z,30.44
2018-04-27T10:19:16.865Z,30.72
2018-04-27T10:20:27.170Z,30.72
2018-04-27T10:21:37.184Z,30.91
2018-04-27T10:22:47.341Z,31.2
2018-04-27T10:23:57.498Z,31.1
2018-04-27T10:25:07.672Z,31.2
2018-04-27T10:26:17.576Z,31.49
2018-04-27T10:27:27.746Z,31.31
2018-04-27T10:28:37.912Z,30.54
2018-04-27T10:29:48.068Z,30.33
2018-04-27T10:30:59.355Z,30.9
2018-04-27T10:32:09.645Z,31.17
2018-04-27T10:33:19.804Z,31.27
2018-04-27T10:34:29.800Z,30.59
2018-04-27T10:35:39.941Z,31.15
2018-04-27T10:36:49.861Z,31.63
2018-04-27T10:38:00.101Z,31.43
2018-04-27T10:39:10.262Z,31.63
2018-04-27T10:40:20.439Z,31.93
2018-04-27T10:41:30.650Z,32.31
2018-04-27T10:42:40.894Z,32.23
2018-04-27T10:43:51.154Z,32.14
2018-04-27T10:45:01.382Z,31.96
2018-04-27T10:46:11.590Z,31.18
2018-04-27T10:47:21.486Z,30.51
2018-04-27T10:48:31.688Z,30.99
2018-04-27T10:49:41.857Z,31.18
2018-04-27T10:50:52.018Z,30.91
2018-04-27T10:52:02.159Z,31.2
2018-04-27T10:53:11.852Z,31.2
2018-04-27T10:54:22.051Z,31.01
2018-04-27T10:55:31.952Z,31.18
2018-04-27T10:56:42.094Z,31.37
2018-04-27T10:57:52.279Z,31.75
2018-04-27T10:59:02.171Z,31.46
2018-04-27T11:00:12.389Z,31.75
2018-04-27T11:01:22.671Z,31.07
2018-04-27T11:02:32.779Z,31.17
2018-04-27T11:03:42.963Z,31.46
2018-04-27T11:04:53.214Z,31.48
2018-04-27T11:06:03.400Z,31.67
2018-04-27T11:07:13.667Z,32.15
2018-04-27T11:08:23.880Z,32.33
2018-04-27T11:09:34.070Z,32.33
2018-04-27T11:10:44.375Z,32.14
2018-04-27T11:11:54.557Z,32.23
2018-04-27T11:13:04.811Z,32.23
2018-04-27T11:14:14.957Z,32.23
2018-04-27T11:15:24.850Z,32.33
2018-04-27T11:16:34.996Z,31.67
2018-04-27T11:17:45.286Z,31.56
2018-04-27T11:18:55.467Z,31.46
2018-04-27T11:20:05.630Z,31.63
2018-04-27T11:21:15.678Z,31.83
2018-04-27T11:22:25.894Z,31.63
2018-04-27T11:23:36.072Z,31.45
2018-04-27T11:24:46.256Z,31.45
2018-04-27T11:25:56.193Z,31.33
2018-04-27T11:27:06.507Z,31.9
2018-04-27T11:28:16.769Z,32.56
2018-04-27T11:29:26.677Z,33.03
2018-04-27T11:30:36.852Z,33.51
2018-04-27T11:31:46.743Z,34.17
2018-04-27T11:32:56.931Z,34.37
2018-04-27T11:34:07.258Z,34.17
2018-04-27T11:35:17.160Z,34.38
2018-04-27T11:36:27.405Z,34.38
2018-04-27T11:37:37.053Z,34.19
2018-04-27T11:38:48.201Z,33.71
2018-04-27T11:39:58.000Z,34.09
2018-04-27T11:41:08.182Z,33.73
2018-04-27T11:42:18.602Z,33.34
2018-04-27T11:43:28.776Z,32.87
2018-04-27T11:44:38.920Z,32.31
2018-04-27T11:45:50.049Z,32.89
2018-04-27T11:47:00.243Z,32.89
2018-04-27T11:48:10.451Z,31.85
2018-04-27T11:49:20.674Z,30.88
2018-04-27T11:50:30.874Z,31.17
2018-04-27T11:51:41.015Z,31.15
2018-04-27T11:52:51.009Z,30.96
2018-04-27T11:54:01.059Z,30.87
2018-04-27T11:55:11.313Z,30.87
2018-04-27T11:56:21.482Z,31.15
2018-04-27T11:57:31.709Z,31.43
2018-04-27T11:58:41.886Z,30.77
2018-04-27T11:59:52.040Z,30.48
2018-04-27T12:01:03.444Z,29.71
2018-04-27T12:02:13.641Z,29.8
2018-04-27T12:03:23.862Z,29.9
2018-04-27T12:04:34.020Z,30.29
2018-04-27T12:05:44.179Z,30.38
2018-04-27T12:06:54.368Z,30.48
2018-04-27T12:08:04.638Z,30.58
2018-04-27T12:09:14.949Z,30.58
2018-04-27T12:10:25.112Z,29.41
2018-04-27T12:11:35.359Z,29.77
2018-04-27T12:12:45.552Z,30.45
2018-04-27T12:13:55.708Z,30.73
2018-04-27T12:15:05.931Z,31.4
2018-04-27T12:16:16.179Z,32.07
2018-04-27T12:17:26.389Z,32.26
2018-04-27T12:18:36.786Z,31.98
2018-04-27T12:19:46.689Z,32.17
2018-04-27T12:20:57.812Z,32.26
2018-04-27T12:22:07.968Z,32.26
2018-04-27T12:23:17.643Z,31.69
2018-04-27T12:24:27.651Z,31.41
2018-04-27T12:25:37.448Z,31.51
2018-04-27T12:26:47.736Z,31.59
2018-04-27T12:27:57.993Z,30.91
2018-04-27T12:29:08.215Z,31.11
2018-04-27T12:30:18.495Z,31.11
2018-04-27T12:31:28.806Z,31.48
2018-04-27T12:32:39.438Z,31.67
2018-04-27T12:33:49.620Z,31.87
2018-04-27T12:34:59.819Z,31.57
2018-04-27T12:36:10.031Z,31.57
2018-04-27T12:37:19.932Z,31.59
2018-04-27T12:38:30.118Z,31.4
2018-04-27T12:39:40.299Z,31.3
2018-04-27T12:40:50.516Z,31.57
2018-04-27T12:42:00.689Z,31.96
2018-04-27T12:43:10.865Z,32.33
2018-04-27T12:44:21.062Z,32.14
2018-04-27T12:45:31.219Z,32.14
2018-04-27T12:46:41.071Z,32.62
2018-04-27T12:47:51.330Z,32.71
2018-04-27T12:49:01.645Z,32.7
2018-04-27T12:50:11.591Z,32.9
2018-04-27T12:51:21.563Z,32.89
2018-04-27T12:52:31.779Z,33.1
2018-04-27T12:53:41.963Z,33
2018-04-27T12:54:52.149Z,32.9
2018-04-27T12:56:02.442Z,32.71
2018-04-27T12:57:12.640Z,32.33
2018-04-27T12:58:22.866Z,32.9
2018-04-27T12:59:33.084Z,33.08
2018-04-27T13:00:43.253Z,33.28
2018-04-27T13:01:53.515Z,33.66
2018-04-27T13:03:03.912Z,34.23
2018-04-27T13:04:14.144Z,34.12
2018-04-27T13:05:24.303Z,34.22
2018-04-27T13:06:34.250Z,34.51
2018-04-27T13:07:44.177Z,34.68
2018-04-27T13:08:54.446Z,34.68
2018-04-27T13:10:04.386Z,35.16
2018-04-27T13:11:14.561Z,35.36
2018-04-27T13:12:24.732Z,35.45
2018-04-27T13:13:35.926Z,35.36
2018-04-27T13:14:46.126Z,35.64
2018-04-27T13:15:56.310Z,35.83
2018-04-27T13:17:06.515Z,35.76
2018-04-27T13:18:16.727Z,35.76
2018-04-27T13:19:26.380Z,35.76
2018-04-27T13:20:36.249Z,35.57
2018-04-27T13:21:46.410Z,35.57
2018-04-27T13:22:56.417Z,35.76
2018-04-27T13:24:06.648Z,35.66
2018-04-27T13:25:16.893Z,36.05
2018-04-27T13:26:27.053Z,35.95
2018-04-27T13:27:37.795Z,35.95
2018-04-27T13:28:48.079Z,35.85
2018-04-27T13:29:58.261Z,35.66
2018-04-27T13:31:09.430Z,35.38
2018-04-27T13:32:19.716Z,35.38
2018-04-27T13:33:30.050Z,35.28
2018-04-27T13:34:41.202Z,34.99
2018-04-27T13:35:51.398Z,34.8
2018-04-27T13:37:01.816Z,34.99
2018-04-27T13:38:11.995Z,35.08
2018-04-27T13:39:22.241Z,34.99
2018-04-27T13:40:32.413Z,34.8
2018-04-27T13:41:42.651Z,34.61
2018-04-27T13:42:52.839Z,34.89
2018-04-27T13:44:03.161Z,35.08
2018-04-27T13:45:13.353Z,35.16
2018-04-27T13:46:23.499Z,35.26
2018-04-27T13:47:33.718Z,35.64
2018-04-27T13:48:43.893Z,35.64
2018-04-27T13:49:54.084Z,35.95
2018-04-27T13:51:04.346Z,35.95
2018-04-27T13:52:14.704Z,35.76
2018-04-27T13:53:24.876Z,35.66
2018-04-27T13:54:35.100Z,35.76
2018-04-27T13:55:45.372Z,35.85
2018-04-27T13:56:55.345Z,35.85
2018-04-27T13:58:05.224Z,35.74
2018-04-27T13:59:15.496Z,35.83
2018-04-27T14:00:25.738Z,36.22
2018-04-27T14:01:35.900Z,36.22
2018-04-27T14:02:46.187Z,36.24
2018-04-27T14:03:56.664Z,36.33
2018-04-27T14:05:06.820Z,36.15
2018-04-27T14:06:17.002Z,36.33
2018-04-27T14:07:27.255Z,36.15
2018-04-27T14:08:37.510Z,36.24
2018-04-27T14:09:47.975Z,36.33
2018-04-27T14:10:58.121Z,36.33
2018-04-27T14:12:08.293Z,36.33
2018-04-27T14:13:18.467Z,36.53
2018-04-27T14:14:28.369Z,36.62
2018-04-27T14:15:38.572Z,36.43
2018-04-27T14:16:48.769Z,36.43
2018-04-27T14:17:59.000Z,36.33
2018-04-27T14:19:09.216Z,36.33
2018-04-27T14:20:19.431Z,36.32
2018-04-27T14:21:29.785Z,36.22
2018-04-27T14:22:40.349Z,36.13
2018-04-27T14:23:50.623Z,36.51
2018-04-27T14:25:00.827Z,36.51
2018-04-27T14:26:11.001Z,36.51
2018-04-27T14:27:21.177Z,36.51
2018-04-27T14:28:31.545Z,36.99
2018-04-27T14:29:41.732Z,37.08
2018-04-27T14:30:51.914Z,37.27
2018-04-27T14:32:02.123Z,37.18
2018-04-27T14:33:12.025Z,36.99
2018-04-27T14:34:22.241Z,37.08
2018-04-27T14:35:32.411Z,37.18
2018-04-27T14:36:42.441Z,37.27
2018-04-27T14:37:52.707Z,36.99
2018-04-27T14:39:02.980Z,37.37
2018-04-27T14:40:13.263Z,36.99
2018-04-27T14:41:23.433Z,37.27
2018-04-27T14:42:33.605Z,36.99
2018-04-27T14:43:43.765Z,36.99
2018-04-27T14:44:54.041Z,37.47
2018-04-27T14:46:04.254Z,37.18
2018-04-27T14:47:14.520Z,37.27
2018-04-27T14:48:24.546Z,36.7
2018-04-27T14:49:34.745Z,36.8
2018-04-27T14:50:44.893Z,37.27
2018-04-27T14:51:55.058Z,37.08
2018-04-27T14:53:04.948Z,37.08
2018-04-27T14:54:14.706Z,37.08
2018-04-27T14:55:25.036Z,36.99
2018-04-27T14:56:35.233Z,36.99
2018-04-27T14:57:45.509Z,37.08
2018-04-27T14:58:55.793Z,36.99
2018-04-27T15:00:05.956Z,37.08
2018-04-27T15:01:16.111Z,37.27
2018-04-27T15:02:26.007Z,36.99
2018-04-27T15:03:35.804Z,36.8
2018-04-27T15:04:46.004Z,36.99
2018-04-27T15:05:56.267Z,37.27
2018-04-27T15:07:06.828Z,36.99
2018-04-27T15:08:16.989Z,37.18
2018-04-27T15:09:27.167Z,36.7
2018-04-27T15:10:37.497Z,36.7
2018-04-27T15:11:47.671Z,37.26
2018-04-27T15:12:57.896Z,37.16
2018-04-27T15:14:08.100Z,37.26
2018-04-27T15:15:18.313Z,37.47
2018-04-27T15:16:28.509Z,37.16
2018-04-27T15:17:38.672Z,37.07